createdAt,value
2022-08-20T00:00:47.982Z,79.37
2022-08-20T00:03:17.736Z,79.24
2022-08-20T00:05:51.932Z,79.21
2022-08-20T00:08:25.261Z,79.49
2022-08-20T00:10:55.838Z,79.48
2022-08-20T00:13:26.311Z,79.15
2022-08-20T00:15:54.188Z,79.24
2022-08-20T00:18:22.420Z,79.72
2022-08-20T00:20:52.769Z,80.27
2022-08-20T00:23:21.688Z,79.47
2022-08-20T00:25:49.896Z,79.54
2022-08-20T00:28:19.493Z,79.53
2022-08-20T00:30:47.800Z,79.47
2022-08-20T00:33:18.227Z,79.53
2022-08-20T00:35:48.432Z,79.31
2022-08-20T00:38:16.675Z,79.41
2022-08-20T00:40:46.205Z,79.21
2022-08-20T00:43:32.757Z,79.06
2022-08-20T00:46:03.112Z,79.68
2022-08-20T00:48:32.968Z,80.00
2022-08-20T00:51:05.588Z,79.43
2022-08-20T00:53:34.556Z,79.54
2022-08-20T00:56:02.480Z,79.41
2022-08-20T00:58:31.652Z,79.67
2022-08-20T01:00:59.824Z,79.12
2022-08-20T01:03:27.611Z,80.41
2022-08-20T01:05:55.337Z,80.61
2022-08-20T01:08:26.686Z,80.62
2022-08-20T01:11:10.531Z,80.38
2022-08-20T01:13:40.224Z,80.73
2022-08-20T01:16:12.739Z,81.07
2022-08-20T01:18:40.524Z,80.19
2022-08-20T01:21:08.800Z,80.13
2022-08-20T01:23:54.348Z,79.85
2022-08-20T01:26:25.809Z,79.75
2022-08-20T01:28:56.776Z,80.26
2022-08-20T01:31:26.410Z,80.36
2022-08-20T01:33:55.740Z,80.61
2022-08-20T01:36:31.573Z,81.28
2022-08-20T01:38:59.912Z,81.56
2022-08-20T01:41:37.448Z,81.08
2022-08-20T01:44:05.649Z,81.38
2022-08-20T01:46:43.771Z,81.60
2022-08-20T01:49:15.682Z,81.90
2022-08-20T01:51:51.644Z,81.29
2022-08-20T01:54:20.440Z,83.19
2022-08-20T01:56:55.140Z,81.82
2022-08-20T01:59:24.196Z,82.14
2022-08-20T02:01:52.368Z,81.80
2022-08-20T02:04:20.737Z,82.47
2022-08-20T02:06:56.581Z,82.21
2022-08-20T02:09:26.479Z,82.14
2022-08-20T02:11:55.697Z,81.96
2022-08-20T02:14:23.469Z,82.13
2022-08-20T02:16:55.307Z,82.36
2022-08-20T02:19:25.722Z,82.12
2022-08-20T02:21:56.521Z,82.08
2022-08-20T02:24:24.248Z,82.03
2022-08-20T02:26:52.351Z,81.51
2022-08-20T02:29:21.585Z,81.75
2022-08-20T02:32:32.770Z,81.90
2022-08-20T02:34:37.120Z,81.57
2022-08-20T02:37:06.741Z,82.25
2022-08-20T02:39:35.140Z,81.85
2022-08-20T02:42:03.773Z,82.59
2022-08-20T02:44:32.999Z,81.80
2022-08-20T02:47:00.893Z,83.08
2022-08-20T02:49:28.615Z,83.16
2022-08-20T02:51:56.341Z,84.21
2022-08-20T02:54:24.365Z,83.01
2022-08-20T02:56:52.719Z,83.10
2022-08-20T02:59:20.428Z,83.24
2022-08-20T03:01:59.974Z,82.74
2022-08-20T03:04:29.136Z,83.29
2022-08-20T03:06:57.201Z,82.81
2022-08-20T03:09:24.930Z,84.28
2022-08-20T03:11:52.775Z,83.62
2022-08-20T03:14:20.603Z,83.26
2022-08-20T03:16:49.776Z,83.54
2022-08-20T03:19:17.736Z,84.30
2022-08-20T03:21:45.477Z,83.81
2022-08-20T03:24:13.296Z,83.41
2022-08-20T03:26:41.153Z,83.53
2022-08-20T03:29:09.021Z,83.17
2022-08-20T03:31:36.765Z,82.89
2022-08-20T03:34:06.308Z,83.24
2022-08-20T03:36:34.131Z,83.23
2022-08-20T03:39:06.158Z,83.32
2022-08-20T03:41:33.887Z,82.79
2022-08-20T03:44:01.637Z,82.60
2022-08-20T03:46:29.798Z,82.07
2022-08-20T03:49:00.424Z,82.36
2022-08-20T03:51:31.537Z,82.44
2022-08-20T03:54:03.079Z,82.70
2022-08-20T03:56:31.637Z,82.82
2022-08-20T03:58:59.523Z,82.41
2022-08-20T04:01:44.544Z,82.50
2022-08-20T04:04:14.302Z,83.08
2022-08-20T04:06:43.881Z,83.26
2022-08-20T04:09:12.184Z,82.84
2022-08-20T04:11:40.328Z,83.19
2022-08-20T04:14:08.091Z,83.13
2022-08-20T04:16:37.666Z,82.80
2022-08-20T04:19:06.112Z,82.87
2022-08-20T04:21:34.956Z,82.98
2022-08-20T04:24:05.955Z,82.84
2022-08-20T04:26:37.100Z,82.87
2022-08-20T04:29:04.995Z,83.07
2022-08-20T04:31:34.104Z,83.04
2022-08-20T04:34:02.904Z,83.18
2022-08-20T04:36:30.732Z,83.40
2022-08-20T04:38:58.412Z,83.28
2022-08-20T04:41:27.909Z,82.96
2022-08-20T04:43:56.564Z,82.72
2022-08-20T04:46:28.410Z,82.66
2022-08-20T04:48:57.018Z,82.11
2022-08-20T04:51:25.106Z,81.94
2022-08-20T04:53:56.113Z,82.25
2022-08-20T04:56:27.889Z,82.86
2022-08-20T04:58:58.605Z,82.33
2022-08-20T05:01:27.040Z,82.35
2022-08-20T05:03:55.642Z,82.86
2022-08-20T05:06:25.731Z,82.52
2022-08-20T05:08:53.564Z,82.51
2022-08-20T05:11:33.468Z,82.67
2022-08-20T05:14:08.540Z,82.31
2022-08-20T05:16:40.665Z,82.09
2022-08-20T05:19:10.087Z,84.35
2022-08-20T05:21:38.012Z,83.28
2022-08-20T05:24:06.437Z,82.93
2022-08-20T05:26:34.319Z,82.98
2022-08-20T05:29:04.620Z,82.71
2022-08-20T05:31:34.972Z,82.77
2022-08-20T05:34:03.155Z,83.02
2022-08-20T05:36:30.934Z,83.15
2022-08-20T05:38:58.909Z,83.23
2022-08-20T05:41:30.004Z,84.01
2022-08-20T05:44:00.983Z,84.91
2022-08-20T05:46:30.967Z,83.86
2022-08-20T05:49:01.212Z,84.64
2022-08-20T05:51:30.089Z,85.56
2022-08-20T05:53:59.703Z,85.43
2022-08-20T05:56:30.105Z,84.73
2022-08-20T05:58:58.424Z,85.65
2022-08-20T06:01:26.194Z,85.42
2022-08-20T06:04:11.763Z,86.53
2022-08-20T06:06:45.596Z,86.53
2022-08-20T06:09:14.645Z,86.82
2022-08-20T06:11:42.556Z,86.64
2022-08-20T06:14:10.340Z,87.38
2022-08-20T06:16:38.375Z,86.94
2022-08-20T06:19:06.685Z,85.48
2022-08-20T06:21:40.988Z,86.58
2022-08-20T06:24:09.383Z,88.14
2022-08-20T06:26:37.704Z,88.96
2022-08-20T06:29:06.592Z,87.39
2022-08-20T06:31:39.688Z,89.18
2022-08-20T06:34:08.180Z,87.12
2022-08-20T06:36:36.495Z,88.88
2022-08-20T06:39:05.660Z,88.25
2022-08-20T06:41:36.098Z,88.14
2022-08-20T06:44:05.462Z,87.91
2022-08-20T06:46:38.615Z,88.82
2022-08-20T06:49:08.521Z,88.09
2022-08-20T06:51:37.558Z,88.75
2022-08-20T06:54:09.189Z,89.32
2022-08-20T06:56:36.932Z,88.29
2022-08-20T06:59:04.847Z,88.07
2022-08-20T07:01:32.804Z,88.62
2022-08-20T07:04:00.535Z,89.44
2022-08-20T07:06:28.777Z,89.09
2022-08-20T07:08:56.883Z,89.84
2022-08-20T07:11:28.052Z,92.08
2022-08-20T07:13:57.885Z,90.96
2022-08-20T07:16:26.020Z,90.46
2022-08-20T07:18:53.890Z,91.15
2022-08-20T07:21:21.628Z,90.73
2022-08-20T07:23:49.776Z,92.08
2022-08-20T07:26:17.826Z,91.15
2022-08-20T07:28:47.068Z,90.74
2022-08-20T07:31:35.030Z,92.43
2022-08-20T07:34:03.304Z,91.75
2022-08-20T07:36:31.492Z,92.24
2022-08-20T07:38:59.325Z,90.44
2022-08-20T07:41:34.286Z,92.46
2022-08-20T07:44:03.640Z,92.33
2022-08-20T07:46:32.189Z,91.61
2022-08-20T07:49:00.231Z,90.52
2022-08-20T07:51:28.502Z,92.17
2022-08-20T07:53:58.106Z,91.17
2022-08-20T07:56:26.492Z,92.61
2022-08-20T07:58:58.991Z,92.56
2022-08-20T08:01:31.498Z,93.07
2022-08-20T08:04:00.436Z,91.80
2022-08-20T08:06:31.074Z,91.87
2022-08-20T08:09:04.449Z,92.29
2022-08-20T08:11:34.575Z,90.63
2022-08-20T08:14:02.727Z,91.74
2022-08-20T08:16:32.322Z,92.56
2022-08-20T08:19:03.068Z,92.47
2022-08-20T08:21:32.099Z,92.03
2022-08-20T08:24:00.001Z,92.67
2022-08-20T08:26:28.810Z,91.84
2022-08-20T08:28:57.988Z,92.23
2022-08-20T08:31:25.780Z,91.16
2022-08-20T08:33:56.180Z,91.46
2022-08-20T08:36:26.981Z,91.80
2022-08-20T08:38:55.764Z,91.02
2022-08-20T08:41:34.472Z,91.31
2022-08-20T08:44:08.100Z,91.79
2022-08-20T08:46:40.436Z,90.85
2022-08-20T08:49:11.651Z,91.25
2022-08-20T08:51:42.182Z,89.64
2022-08-20T08:54:10.787Z,88.55
2022-08-20T08:56:38.532Z,88.07
2022-08-20T08:59:08.663Z,88.22
2022-08-20T09:01:54.054Z,88.21
2022-08-20T09:04:29.074Z,89.42
2022-08-20T09:06:57.315Z,88.71
2022-08-20T09:09:28.049Z,89.18
2022-08-20T09:11:57.754Z,87.32
2022-08-20T09:14:26.701Z,86.06
2022-08-20T09:16:54.477Z,84.16
2022-08-20T09:19:22.266Z,83.69
2022-08-20T09:21:51.344Z,83.80
2022-08-20T09:24:19.268Z,84.14
2022-08-20T09:26:47.071Z,84.71
2022-08-20T09:29:15.013Z,84.44
2022-08-20T09:31:42.882Z,83.50
2022-08-20T09:34:10.757Z,83.25
2022-08-20T09:36:38.433Z,83.07
2022-08-20T09:39:07.700Z,82.39
2022-08-20T09:41:35.490Z,81.50
2022-08-20T09:44:03.483Z,82.58
2022-08-20T09:46:31.175Z,83.30
2022-08-20T09:48:58.935Z,82.81
2022-08-20T09:51:26.860Z,83.20
2022-08-20T09:53:55.343Z,83.73
2022-08-20T09:56:26.529Z,83.64
2022-08-20T09:58:57.195Z,83.11
2022-08-20T10:01:26.727Z,83.02
2022-08-20T10:03:54.498Z,82.55
2022-08-20T10:06:22.230Z,80.58
2022-08-20T10:08:50.290Z,80.90
2022-08-20T10:11:18.188Z,79.56
2022-08-20T10:13:47.292Z,78.18
2022-08-20T10:16:15.042Z,77.06
2022-08-20T10:18:42.772Z,77.76
2022-08-20T10:21:11.134Z,78.84
2022-08-20T10:23:38.876Z,78.82
2022-08-20T10:26:08.426Z,78.78
2022-08-20T10:28:36.653Z,78.01
2022-08-20T10:31:08.505Z,77.29
2022-08-20T10:33:36.805Z,77.08
2022-08-20T10:36:07.668Z,77.96
2022-08-20T10:38:35.416Z,77.89
2022-08-20T10:41:03.172Z,77.36
2022-08-20T10:43:30.980Z,77.30
2022-08-20T10:45:58.716Z,78.20
2022-08-20T10:48:27.930Z,77.96
2022-08-20T10:50:55.859Z,78.94
2022-08-20T10:53:23.569Z,77.80
2022-08-20T10:55:51.350Z,77.30
2022-08-20T10:58:19.228Z,76.96
2022-08-20T11:00:50.928Z,75.64
2022-08-20T11:03:18.854Z,74.45
2022-08-20T11:05:48.318Z,73.11
2022-08-20T11:08:16.208Z,72.94
2022-08-20T11:11:03.458Z,73.23
2022-08-20T11:13:31.183Z,72.72
2022-08-20T11:15:58.905Z,73.25
2022-08-20T11:18:26.646Z,72.84
2022-08-20T11:20:56.283Z,72.93
2022-08-20T11:23:24.017Z,73.20
2022-08-20T11:25:51.792Z,73.52
2022-08-20T11:28:31.440Z,73.69
2022-08-20T11:31:00.784Z,73.67
2022-08-20T11:33:29.359Z,74.28
2022-08-20T11:35:58.535Z,73.62
2022-08-20T11:38:26.597Z,74.47
2022-08-20T11:40:54.325Z,74.23
2022-08-20T11:43:22.027Z,73.83
2022-08-20T11:45:52.270Z,74.74
2022-08-20T11:48:20.031Z,74.46
2022-08-20T11:50:48.128Z,74.32
2022-08-20T11:53:17.299Z,74.15
2022-08-20T11:55:45.087Z,74.50
2022-08-20T11:58:13.563Z,74.17
2022-08-20T12:00:41.787Z,73.83
2022-08-20T12:03:10.414Z,73.91
2022-08-20T12:05:40.267Z,73.16
2022-08-20T12:08:08.345Z,73.25
2022-08-20T12:10:38.345Z,73.65
2022-08-20T12:13:06.785Z,74.23
2022-08-20T12:15:34.726Z,73.45
2022-08-20T12:18:03.256Z,72.96
2022-08-20T12:20:31.018Z,72.95
2022-08-20T12:22:58.835Z,73.44
2022-08-20T12:25:27.248Z,72.99
2022-08-20T12:27:56.642Z,73.57
2022-08-20T12:30:25.430Z,73.42
2022-08-20T12:32:53.237Z,72.67
2022-08-20T12:35:21.436Z,72.40
2022-08-20T12:37:49.283Z,72.54
2022-08-20T12:40:24.453Z,72.62
2022-08-20T12:43:04.133Z,71.89
2022-08-20T12:45:32.746Z,72.38
2022-08-20T12:48:10.376Z,72.43
2022-08-20T12:50:39.472Z,72.66
2022-08-20T12:53:07.384Z,73.21
2022-08-20T12:55:35.927Z,72.79
2022-08-20T12:58:08.740Z,72.66
2022-08-20T13:00:38.902Z,72.32
2022-08-20T13:03:12.901Z,73.01
2022-08-20T13:05:41.785Z,72.36
2022-08-20T13:08:11.796Z,71.64
2022-08-20T13:10:44.234Z,70.78
2022-08-20T13:13:13.833Z,71.46
2022-08-20T13:15:41.887Z,71.78
2022-08-20T13:18:09.923Z,71.91
2022-08-20T13:20:37.689Z,70.94
2022-08-20T13:23:05.996Z,70.75
2022-08-20T13:25:33.988Z,70.52
2022-08-20T13:28:04.829Z,70.04
2022-08-20T13:30:36.629Z,69.38
2022-08-20T13:33:05.945Z,70.31
2022-08-20T13:35:33.813Z,70.22
2022-08-20T13:38:03.882Z,69.71
2022-08-20T13:40:31.851Z,69.64
2022-08-20T13:43:04.486Z,70.17
2022-08-20T13:45:36.147Z,69.81
2022-08-20T13:48:05.348Z,69.65
2022-08-20T13:50:36.294Z,69.68
2022-08-20T13:53:05.512Z,70.07
2022-08-20T13:55:35.157Z,69.65
2022-08-20T13:58:07.874Z,69.80
2022-08-20T14:00:38.433Z,70.43
2022-08-20T14:03:07.285Z,68.26
2022-08-20T14:05:35.674Z,68.15
2022-08-20T14:08:09.139Z,68.99
2022-08-20T14:10:42.739Z,69.19
2022-08-20T14:13:15.159Z,69.48
2022-08-20T14:15:44.902Z,67.65
2022-08-20T14:18:15.886Z,68.24
2022-08-20T14:20:45.498Z,67.09
2022-08-20T14:23:13.500Z,66.09
2022-08-20T14:25:41.309Z,66.46
2022-08-20T14:28:13.331Z,65.17
2022-08-20T14:30:42.400Z,64.17
2022-08-20T14:33:11.453Z,62.56
2022-08-20T14:35:40.033Z,64.51
2022-08-20T14:38:08.668Z,65.12
2022-08-20T14:40:36.887Z,64.66
2022-08-20T14:43:04.772Z,63.26
2022-08-20T14:45:32.608Z,62.62
2022-08-20T14:48:00.489Z,62.06
2022-08-20T14:50:33.227Z,60.92
2022-08-20T14:53:01.902Z,61.90
2022-08-20T14:55:31.751Z,60.92
2022-08-20T14:57:59.797Z,59.50
2022-08-20T15:00:30.710Z,59.43
2022-08-20T15:02:58.834Z,59.99
2022-08-20T15:05:27.076Z,58.65
2022-08-20T15:07:59.417Z,58.87
2022-08-20T15:10:29.099Z,59.12
2022-08-20T15:12:57.407Z,60.05
2022-08-20T15:15:25.914Z,61.05
2022-08-20T15:17:55.906Z,61.26
2022-08-20T15:20:26.043Z,62.17
2022-08-20T15:22:53.964Z,61.87
2022-08-20T15:25:25.074Z,62.58
2022-08-20T15:27:56.284Z,62.58
2022-08-20T15:30:30.250Z,62.64
2022-08-20T15:32:58.430Z,62.28
2022-08-20T15:35:28.152Z,62.61
2022-08-20T15:37:58.074Z,62.50
2022-08-20T15:40:29.518Z,62.65
2022-08-20T15:42:57.516Z,62.97
2022-08-20T15:45:25.955Z,62.79
2022-08-20T15:47:56.277Z,61.98
2022-08-20T15:50:50.614Z,61.93
2022-08-20T15:53:21.460Z,62.21
2022-08-20T15:55:57.178Z,62.03
2022-08-20T15:58:28.495Z,62.62
2022-08-20T16:01:23.731Z,62.73
2022-08-20T16:04:15.752Z,62.31
2022-08-20T16:06:44.385Z,62.67
2022-08-20T16:09:24.756Z,62.62
2022-08-20T16:11:59.759Z,62.09
2022-08-20T16:14:29.001Z,61.79
2022-08-20T16:17:01.630Z,61.10
2022-08-20T16:19:33.724Z,61.64
2022-08-20T16:22:01.952Z,61.71
2022-08-20T16:24:29.892Z,61.45
2022-08-20T16:27:08.707Z,61.54
2022-08-20T16:29:52.441Z,61.66
2022-08-20T16:32:35.558Z,61.02
2022-08-20T16:35:11.613Z,61.42
2022-08-20T16:37:43.896Z,61.85
2022-08-20T16:40:20.559Z,61.55
2022-08-20T16:42:52.229Z,61.18
2022-08-20T16:45:22.377Z,61.89
2022-08-20T16:47:51.134Z,61.26
2022-08-20T16:50:21.620Z,61.09
2022-08-20T16:52:49.968Z,60.86
2022-08-20T16:55:18.499Z,61.40
2022-08-20T16:57:47.645Z,60.84
2022-08-20T17:00:29.278Z,60.63
2022-08-20T17:02:59.944Z,60.84
2022-08-20T17:05:29.795Z,60.64
2022-08-20T17:08:03.076Z,61.15
2022-08-20T17:10:33.893Z,59.90
2022-08-20T17:13:05.768Z,60.82
2022-08-20T17:15:35.984Z,60.78
2022-08-20T17:18:18.857Z,60.63
2022-08-20T17:20:46.837Z,60.34
2022-08-20T17:23:18.124Z,60.64
2022-08-20T17:25:47.314Z,59.97
2022-08-20T17:28:16.284Z,60.42
2022-08-20T17:30:47.276Z,60.73
2022-08-20T17:33:28.749Z,60.49
2022-08-20T17:35:58.773Z,60.57
2022-08-20T17:38:32.999Z,60.31
2022-08-20T17:41:04.087Z,61.22
2022-08-20T17:43:33.658Z,61.00
2022-08-20T17:46:05.197Z,60.89
2022-08-20T17:48:42.837Z,60.31
2022-08-20T17:51:16.175Z,59.88
2022-08-20T17:53:45.009Z,60.57
2022-08-20T17:56:17.327Z,60.61
2022-08-20T17:58:54.997Z,60.53
2022-08-20T18:01:25.768Z,60.53
2022-08-20T18:03:54.135Z,60.67
2022-08-20T18:06:30.650Z,60.09
2022-08-20T18:09:04.693Z,60.10
2022-08-20T18:11:34.966Z,60.33
2022-08-20T18:14:19.037Z,59.90
2022-08-20T18:16:58.564Z,60.08
2022-08-20T18:19:38.829Z,60.18
2022-08-20T18:22:11.213Z,60.60
2022-08-20T18:24:44.898Z,60.32
2022-08-20T18:27:15.797Z,60.16
2022-08-20T18:29:46.590Z,60.51
2022-08-20T18:32:27.615Z,60.32
2022-08-20T18:34:55.480Z,60.88
2022-08-20T18:37:25.945Z,60.34
2022-08-20T18:39:53.961Z,60.38
2022-08-20T18:42:27.183Z,60.30
2022-08-20T18:44:55.848Z,60.57
2022-08-20T18:47:29.758Z,60.96
2022-08-20T18:50:06.242Z,59.95
2022-08-20T18:52:46.229Z,60.70
2022-08-20T18:55:28.569Z,60.16
2022-08-20T18:58:00.256Z,60.30
2022-08-20T19:00:32.079Z,60.35
2022-08-20T19:03:11.056Z,60.73
2022-08-20T19:05:43.935Z,60.38
2022-08-20T19:08:15.612Z,60.73
2022-08-20T19:10:48.633Z,60.92
2022-08-20T19:13:46.053Z,60.98
2022-08-20T19:16:17.635Z,60.97
2022-08-20T19:18:50.446Z,60.83
2022-08-20T19:21:22.985Z,60.33
2022-08-20T19:23:56.996Z,61.10
2022-08-20T19:26:26.208Z,60.85
2022-08-20T19:28:56.731Z,60.39
2022-08-20T19:31:26.032Z,60.87
2022-08-20T19:34:04.095Z,60.80
2022-08-20T19:36:54.675Z,60.60
2022-08-20T19:39:23.936Z,60.76
2022-08-20T19:41:57.776Z,61.16
2022-08-20T19:44:30.598Z,60.84
2022-08-20T19:46:59.474Z,60.93
2022-08-20T19:49:33.781Z,61.13
2022-08-20T19:52:10.880Z,61.11
2022-08-20T19:54:48.477Z,61.66
2022-08-20T19:57:17.883Z,61.26
2022-08-20T19:59:54.488Z,61.25
2022-08-20T20:02:24.090Z,61.24
2022-08-20T20:04:55.694Z,61.06
2022-08-20T20:07:28.889Z,61.46
2022-08-20T20:09:58.328Z,61.77
2022-08-20T20:12:26.457Z,61.32
2022-08-20T20:14:55.165Z,60.61
2022-08-20T20:17:25.789Z,60.88
2022-08-20T20:19:59.149Z,60.63
2022-08-20T20:22:29.307Z,61.20
2022-08-20T20:25:05.945Z,61.31
2022-08-20T20:27:36.335Z,61.39
2022-08-20T20:30:07.724Z,61.54
2022-08-20T20:32:35.695Z,61.55
2022-08-20T20:35:06.755Z,61.23
2022-08-20T20:37:50.278Z,61.23
2022-08-20T20:40:25.458Z,61.27
2022-08-20T20:43:03.071Z,61.60
2022-08-20T20:45:34.715Z,61.42
2022-08-20T20:48:12.525Z,61.52
2022-08-20T20:50:42.213Z,61.31
2022-08-20T20:53:10.115Z,61.60
2022-08-20T20:55:39.769Z,61.81
2022-08-20T20:58:07.913Z,61.91
2022-08-20T21:00:35.988Z,61.45
2022-08-20T21:03:04.225Z,61.26
2022-08-20T21:05:33.361Z,61.64
2022-08-20T21:08:05.244Z,61.68
2022-08-20T21:10:37.400Z,61.65
2022-08-20T21:13:05.375Z,61.45
2022-08-20T21:15:33.932Z,61.61
2022-08-20T21:18:03.513Z,61.85
2022-08-20T21:20:31.732Z,61.84
2022-08-20T21:22:59.741Z,62.03
2022-08-20T21:25:30.626Z,62.40
2022-08-20T21:27:58.401Z,62.26
2022-08-20T21:30:26.923Z,62.28
2022-08-20T21:32:55.628Z,62.79
2022-08-20T21:35:23.586Z,62.75
2022-08-20T21:37:51.367Z,62.34
2022-08-20T21:40:22.113Z,62.36
2022-08-20T21:42:51.511Z,62.43
2022-08-20T21:45:19.770Z,62.68
2022-08-20T21:47:48.926Z,62.78
2022-08-20T21:50:18.606Z,63.18
2022-08-20T21:52:59.332Z,63.45
2022-08-20T21:55:36.170Z,63.23
2022-08-20T21:58:11.285Z,63.29
2022-08-20T22:00:53.584Z,63.29
2022-08-20T22:03:22.643Z,63.30
2022-08-20T22:05:51.557Z,63.03
2022-08-20T22:08:19.624Z,63.29
2022-08-20T22:10:47.580Z,63.57
2022-08-20T22:13:17.163Z,63.54
2022-08-20T22:15:44.885Z,63.59
2022-08-20T22:18:12.558Z,63.91
2022-08-20T22:20:40.861Z,63.59
2022-08-20T22:23:08.634Z,63.52
2022-08-20T22:25:36.940Z,63.70
2022-08-20T22:28:05.184Z,63.96
2022-08-20T22:30:34.291Z,64.29
2022-08-20T22:33:04.558Z,64.03
2022-08-20T22:35:32.706Z,63.67
2022-08-20T22:38:00.519Z,63.74
2022-08-20T22:40:30.516Z,64.05
2022-08-20T22:42:58.443Z,63.45
2022-08-20T22:45:26.376Z,63.71
2022-08-20T22:47:55.501Z,63.84
2022-08-20T22:50:24.939Z,63.49
2022-08-20T22:52:53.252Z,63.97
2022-08-20T22:55:21.465Z,64.07
2022-08-20T22:57:49.468Z,63.67
2022-08-20T23:00:19.697Z,63.60
2022-08-20T23:03:00.027Z,63.85
2022-08-20T23:05:29.632Z,63.80
2022-08-20T23:07:58.776Z,64.19
2022-08-20T23:10:27.854Z,64.15
2022-08-20T23:12:56.943Z,63.95
2022-08-20T23:15:24.960Z,63.86
2022-08-20T23:17:53.586Z,64.01
2022-08-20T23:20:22.684Z,63.94
2022-08-20T23:22:50.437Z,63.72
2022-08-20T23:25:22.718Z,63.48
2022-08-20T23:27:52.572Z,64.11
2022-08-20T23:30:21.201Z,63.76
2022-08-20T23:32:49.164Z,63.74
2022-08-20T23:35:16.969Z,64.87
2022-08-20T23:37:48.662Z,64.23
2022-08-20T23:40:17.388Z,64.00
2022-08-20T23:42:55.308Z,63.86
2022-08-20T23:45:23.469Z,64.06
2022-08-20T23:47:51.365Z,63.95
2022-08-20T23:50:24.318Z,63.82
2022-08-20T23:52:53.539Z,63.74
2022-08-20T23:55:22.625Z,63.89
2022-08-20T23:57:50.781Z,63.97
